Skip to content

Reply To: SRH EETN

Malmin Ilmailukerho ry Forums Keskustelu SRH EETN Reply To: SRH EETN

#9723

Tilanne Tallinnassa

Harmaja 151310Z AUTO 09017KT 3400 -RA FEW003 SCT005 BKN007 18/17 Q1015

RMK QFE1015=

Vallitseva saa on niin surkea ja ennusteet epavarmat, joudun jattamaan koneen tallinnaan.

Lisatietoja allekirjoittaneelta ja puheenjohtajalta

Innokas hakija voi ilmottautua

Juha Salminen

p. 040 508 7054

Aihe: .